Union Gap, Washington
Current Conditions -  °F | °C
As of 9:53 AM on Thursday 30 Oct 2014 (Local Time) from KYKM Reporting Station
Light Rain Light Rain  
Wind Chill: 53°   Ceiling: 4600
Heat Index: 53°   Visibility: 4mi
Dew Point: 50°   Wind: 5mph
Humidity: 89%   Direction: 260°W
Pressure: 30.06"   Gusts: NA
Location:  46.562°N, 120.899°W
Report Text: KYKM 301653Z 26004KT 4SM -RA BR BKN046 BKN070 OVC085 12/10 A3006 RMK AO2 SLP179 P0002 T01170100
Loading
Personal Weather Stations






























Interactive Weather Map
Tropical Storm Tracking
New forecast layout! Learn more

10-Day Weather Forecast

Advertisements
Track Severe Weather on mobile